sensor_id;sensor_type;location;lat;lon;timestamp;temperature;humidity
39219;DHT22;24934;52.752;6.964;2023-04-06T00:01:39;2.10;99.90
39219;DHT22;24934;52.752;6.964;2023-04-06T00:04:05;2.00;99.90
39219;DHT22;24934;52.752;6.964;2023-04-06T00:06:31;1.90;99.90
39219;DHT22;24934;52.752;6.964;2023-04-06T00:08:58;1.80;99.90
39219;DHT22;24934;52.752;6.964;2023-04-06T00:11:24;1.80;99.90
39219;DHT22;24934;52.752;6.964;2023-04-06T00:13:50;1.70;99.90
39219;DHT22;24934;52.752;6.964;2023-04-06T00:16:19;1.60;99.90
39219;DHT22;24934;52.752;6.964;2023-04-06T00:18:45;1.60;99.90
39219;DHT22;24934;52.752;6.964;2023-04-06T00:21:12;1.60;99.90
39219;DHT22;24934;52.752;6.964;2023-04-06T00:23:41;1.60;99.90
39219;DHT22;24934;52.752;6.964;2023-04-06T00:26:08;1.50;99.90
39219;DHT22;24934;52.752;6.964;2023-04-06T00:28:34;1.40;99.90
39219;DHT22;24934;52.752;6.964;2023-04-06T00:30:59;1.30;99.90
39219;DHT22;24934;52.752;6.964;2023-04-06T00:33:25;1.30;99.90
39219;DHT22;24934;52.752;6.964;2023-04-06T00:35:51;1.20;99.90
39219;DHT22;24934;52.752;6.964;2023-04-06T00:38:17;1.00;99.90
39219;DHT22;24934;52.752;6.964;2023-04-06T00:40:43;0.90;99.90
39219;DHT22;24934;52.752;6.964;2023-04-06T00:43:12;0.80;99.90
39219;DHT22;24934;52.752;6.964;2023-04-06T00:45:41;0.70;99.90
39219;DHT22;24934;52.752;6.964;2023-04-06T00:48:08;0.60;99.90
39219;DHT22;24934;52.752;6.964;2023-04-06T00:50:34;0.60;99.90
39219;DHT22;24934;52.752;6.964;2023-04-06T00:53:00;0.40;99.90
39219;DHT22;24934;52.752;6.964;2023-04-06T00:55:29;0.40;99.90
39219;DHT22;24934;52.752;6.964;2023-04-06T00:57:58;0.40;99.90
39219;DHT22;24934;52.752;6.964;2023-04-06T01:00:24;0.40;99.90
39219;DHT22;24934;52.752;6.964;2023-04-06T01:02:50;0.50;99.90
39219;DHT22;24934;52.752;6.964;2023-04-06T01:05:15;0.50;99.90
39219;DHT22;24934;52.752;6.964;2023-04-06T01:07:44;0.50;99.90
39219;DHT22;24934;52.752;6.964;2023-04-06T01:10:10;0.40;99.90
39219;DHT22;24934;52.752;6.964;2023-04-06T01:12:35;0.30;99.90
39219;DHT22;24934;52.752;6.964;2023-04-06T01:15:03;0.30;99.90
39219;DHT22;24934;52.752;6.964;2023-04-06T01:17:29;0.20;99.90
39219;DHT22;24934;52.752;6.964;2023-04-06T01:19:55;0.10;99.90
39219;DHT22;24934;52.752;6.964;2023-04-06T01:22:20;0.00;99.90
39219;DHT22;24934;52.752;6.964;2023-04-06T01:24:46;-0.10;99.90
39219;DHT22;24934;52.752;6.964;2023-04-06T01:27:12;-0.20;99.90
39219;DHT22;24934;52.752;6.964;2023-04-06T01:29:39;-0.20;99.90
39219;DHT22;24934;52.752;6.964;2023-04-06T01:32:08;-0.30;99.90
39219;DHT22;24934;52.752;6.964;2023-04-06T01:34:33;-0.30;99.90
39219;DHT22;24934;52.752;6.964;2023-04-06T01:36:59;-0.30;99.90
39219;DHT22;24934;52.752;6.964;2023-04-06T01:39:25;-0.30;99.90
39219;DHT22;24934;52.752;6.964;2023-04-06T01:41:51;-0.20;99.90
39219;DHT22;24934;52.752;6.964;2023-04-06T01:44:17;-0.10;99.90
39219;DHT22;24934;52.752;6.964;2023-04-06T01:46:44;-0.10;99.90
39219;DHT22;24934;52.752;6.964;2023-04-06T01:49:11;-0.10;99.90
39219;DHT22;24934;52.752;6.964;2023-04-06T01:51:36;-0.10;99.90
39219;DHT22;24934;52.752;6.964;2023-04-06T01:54:02;0.10;99.90
39219;DHT22;24934;52.752;6.964;2023-04-06T01:56:28;0.10;99.90
39219;DHT22;24934;52.752;6.964;2023-04-06T01:58:53;0.20;99.90
39219;DHT22;24934;52.752;6.964;2023-04-06T02:01:20;0.30;99.90
39219;DHT22;24934;52.752;6.964;2023-04-06T02:03:45;0.40;99.90
39219;DHT22;24934;52.752;6.964;2023-04-06T02:06:11;0.40;99.90
39219;DHT22;24934;52.752;6.964;2023-04-06T02:08:37;0.30;99.90
39219;DHT22;24934;52.752;6.964;2023-04-06T02:11:02;0.30;99.90
39219;DHT22;24934;52.752;6.964;2023-04-06T02:13:28;0.20;99.90
39219;DHT22;24934;52.752;6.964;2023-04-06T02:15:54;0.10;99.90
39219;DHT22;24934;52.752;6.964;2023-04-06T02:18:26;0.10;99.90
39219;DHT22;24934;52.752;6.964;2023-04-06T02:20:53;0.10;99.90
39219;DHT22;24934;52.752;6.964;2023-04-06T02:23:22;0.00;99.90
39219;DHT22;24934;52.752;6.964;2023-04-06T02:25:47;-0.10;99.90
39219;DHT22;24934;52.752;6.964;2023-04-06T02:28:13;-0.10;99.90
39219;DHT22;24934;52.752;6.964;2023-04-06T02:30:39;-0.10;99.90
39219;DHT22;24934;52.752;6.964;2023-04-06T02:33:04;-0.10;99.90
39219;DHT22;24934;52.752;6.964;2023-04-06T02:35:31;-0.10;99.90
39219;DHT22;24934;52.752;6.964;2023-04-06T02:37:57;0.00;99.90
39219;DHT22;24934;52.752;6.964;2023-04-06T02:40:23;-0.10;99.90
39219;DHT22;24934;52.752;6.964;2023-04-06T02:42:48;-0.20;99.90
39219;DHT22;24934;52.752;6.964;2023-04-06T02:45:14;-0.30;99.90
39219;DHT22;24934;52.752;6.964;2023-04-06T02:47:39;-0.40;99.90
39219;DHT22;24934;52.752;6.964;2023-04-06T02:50:05;-0.40;99.90
39219;DHT22;24934;52.752;6.964;2023-04-06T02:52:32;-0.40;99.90
39219;DHT22;24934;52.752;6.964;2023-04-06T02:54:57;-0.30;99.90
39219;DHT22;24934;52.752;6.964;2023-04-06T02:57:23;-0.30;99.90
39219;DHT22;24934;52.752;6.964;2023-04-06T02:59:48;-0.20;99.90
39219;DHT22;24934;52.752;6.964;2023-04-06T03:02:14;0.00;99.90
39219;DHT22;24934;52.752;6.964;2023-04-06T03:04:40;0.00;99.90
39219;DHT22;24934;52.752;6.964;2023-04-06T03:07:06;0.00;99.90
39219;DHT22;24934;52.752;6.964;2023-04-06T03:09:31;-0.10;99.90
39219;DHT22;24934;52.752;6.964;2023-04-06T03:11:57;-0.10;99.90
39219;DHT22;24934;52.752;6.964;2023-04-06T03:14:22;-0.20;99.90
39219;DHT22;24934;52.752;6.964;2023-04-06T03:16:48;-0.30;99.90
39219;DHT22;24934;52.752;6.964;2023-04-06T03:19:14;-0.50;99.90
39219;DHT22;24934;52.752;6.964;2023-04-06T03:21:40;-0.50;99.90
39219;DHT22;24934;52.752;6.964;2023-04-06T03:24:06;-0.40;99.90
39219;DHT22;24934;52.752;6.964;2023-04-06T03:26:32;-0.30;99.90
39219;DHT22;24934;52.752;6.964;2023-04-06T03:28:58;-0.30;99.90
39219;DHT22;24934;52.752;6.964;2023-04-06T03:31:24;-0.20;99.90
39219;DHT22;24934;52.752;6.964;2023-04-06T03:33:50;-0.20;99.90
39219;DHT22;24934;52.752;6.964;2023-04-06T03:36:15;-0.20;99.90
39219;DHT22;24934;52.752;6.964;2023-04-06T03:38:41;-0.20;99.90
39219;DHT22;24934;52.752;6.964;2023-04-06T03:41:06;-0.30;99.90
39219;DHT22;24934;52.752;6.964;2023-04-06T03:43:32;-0.30;99.90
39219;DHT22;24934;52.752;6.964;2023-04-06T03:45:58;-0.30;99.90
39219;DHT22;24934;52.752;6.964;2023-04-06T03:48:23;-0.20;99.90
39219;DHT22;24934;52.752;6.964;2023-04-06T03:50:49;-0.20;99.90
39219;DHT22;24934;52.752;6.964;2023-04-06T03:53:14;-0.10;99.90
39219;DHT22;24934;52.752;6.964;2023-04-06T03:55:40;-0.10;99.90
39219;DHT22;24934;52.752;6.964;2023-04-06T03:58:06;-0.20;99.90
39219;DHT22;24934;52.752;6.964;2023-04-06T04:00:31;-0.10;99.90
39219;DHT22;24934;52.752;6.964;2023-04-06T04:02:58;-0.20;99.90
39219;DHT22;24934;52.752;6.964;2023-04-06T04:05:24;-0.30;99.90
39219;DHT22;24934;52.752;6.964;2023-04-06T04:07:51;-0.30;99.90
39219;DHT22;24934;52.752;6.964;2023-04-06T04:10:17;-0.30;99.90
39219;DHT22;24934;52.752;6.964;2023-04-06T04:12:43;-0.50;99.90
39219;DHT22;24934;52.752;6.964;2023-04-06T04:15:09;-0.60;99.90
39219;DHT22;24934;52.752;6.964;2023-04-06T04:17:34;-0.70;99.90
39219;DHT22;24934;52.752;6.964;2023-04-06T04:20:00;-0.80;99.90
39219;DHT22;24934;52.752;6.964;2023-04-06T04:22:26;-0.90;99.90
39219;DHT22;24934;52.752;6.964;2023-04-06T04:24:53;-0.90;99.90
39219;DHT22;24934;52.752;6.964;2023-04-06T04:27:18;-0.90;99.90
39219;DHT22;24934;52.752;6.964;2023-04-06T04:29:44;-0.80;99.90
39219;DHT22;24934;52.752;6.964;2023-04-06T04:32:10;-0.80;99.90
39219;DHT22;24934;52.752;6.964;2023-04-06T04:34:36;-0.70;99.90
39219;DHT22;24934;52.752;6.964;2023-04-06T04:37:01;-0.60;99.90
39219;DHT22;24934;52.752;6.964;2023-04-06T04:39:27;-0.60;99.90
39219;DHT22;24934;52.752;6.964;2023-04-06T04:41:52;-0.40;99.90
39219;DHT22;24934;52.752;6.964;2023-04-06T04:44:19;-0.40;99.90
39219;DHT22;24934;52.752;6.964;2023-04-06T04:46:45;-0.30;99.90
39219;DHT22;24934;52.752;6.964;2023-04-06T04:49:10;-0.20;99.90
39219;DHT22;24934;52.752;6.964;2023-04-06T04:51:38;-0.10;99.90
39219;DHT22;24934;52.752;6.964;2023-04-06T04:54:04;-0.10;99.90
39219;DHT22;24934;52.752;6.964;2023-04-06T04:56:33;-0.10;99.90
39219;DHT22;24934;52.752;6.964;2023-04-06T04:58:58;-0.10;99.90
39219;DHT22;24934;52.752;6.964;2023-04-06T05:01:24;-0.20;99.90
39219;DHT22;24934;52.752;6.964;2023-04-06T05:03:50;-0.20;99.90
39219;DHT22;24934;52.752;6.964;2023-04-06T05:06:15;-0.20;99.90
39219;DHT22;24934;52.752;6.964;2023-04-06T05:08:42;-0.20;99.90
39219;DHT22;24934;52.752;6.964;2023-04-06T05:11:08;-0.20;99.90
39219;DHT22;24934;52.752;6.964;2023-04-06T05:13:34;0.00;99.90
39219;DHT22;24934;52.752;6.964;2023-04-06T05:16:00;0.00;99.90
39219;DHT22;24934;52.752;6.964;2023-04-06T05:18:26;0.00;99.90
39219;DHT22;24934;52.752;6.964;2023-04-06T05:20:51;0.00;99.90
39219;DHT22;24934;52.752;6.964;2023-04-06T05:23:17;0.00;99.90
39219;DHT22;24934;52.752;6.964;2023-04-06T05:25:43;0.00;99.90
39219;DHT22;24934;52.752;6.964;2023-04-06T05:28:11;0.00;99.90
39219;DHT22;24934;52.752;6.964;2023-04-06T05:30:39;0.10;99.90
39219;DHT22;24934;52.752;6.964;2023-04-06T05:33:05;0.20;99.90
39219;DHT22;24934;52.752;6.964;2023-04-06T05:35:31;0.30;99.90
39219;DHT22;24934;52.752;6.964;2023-04-06T05:37:56;0.40;99.90
39219;DHT22;24934;52.752;6.964;2023-04-06T05:40:22;0.50;99.90
39219;DHT22;24934;52.752;6.964;2023-04-06T05:42:47;0.60;99.90
39219;DHT22;24934;52.752;6.964;2023-04-06T05:45:15;0.70;99.90
39219;DHT22;24934;52.752;6.964;2023-04-06T05:47:43;0.80;99.90
39219;DHT22;24934;52.752;6.964;2023-04-06T05:50:14;0.80;99.90
39219;DHT22;24934;52.752;6.964;2023-04-06T05:52:40;1.00;99.90
39219;DHT22;24934;52.752;6.964;2023-04-06T05:55:08;1.10;99.90
39219;DHT22;24934;52.752;6.964;2023-04-06T05:57:34;1.60;99.90
39219;DHT22;24934;52.752;6.964;2023-04-06T06:00:03;2.40;99.90
39219;DHT22;24934;52.752;6.964;2023-04-06T06:02:32;2.90;99.90
39219;DHT22;24934;52.752;6.964;2023-04-06T06:04:58;3.40;99.90
39219;DHT22;24934;52.752;6.964;2023-04-06T06:07:23;3.80;99.90
39219;DHT22;24934;52.752;6.964;2023-04-06T06:09:49;4.30;99.90
39219;DHT22;24934;52.752;6.964;2023-04-06T06:12:15;5.00;99.90
39219;DHT22;24934;52.752;6.964;2023-04-06T06:14:41;5.50;99.90
39219;DHT22;24934;52.752;6.964;2023-04-06T06:17:06;6.00;99.90
39219;DHT22;24934;52.752;6.964;2023-04-06T06:19:32;6.00;99.90
39219;DHT22;24934;52.752;6.964;2023-04-06T06:21:58;5.70;99.90
39219;DHT22;24934;52.752;6.964;2023-04-06T06:24:26;6.00;99.90
39219;DHT22;24934;52.752;6.964;2023-04-06T06:26:53;6.40;99.90
39219;DHT22;24934;52.752;6.964;2023-04-06T06:29:18;6.60;99.90
39219;DHT22;24934;52.752;6.964;2023-04-06T06:31:44;6.90;99.90
39219;DHT22;24934;52.752;6.964;2023-04-06T06:34:09;7.20;99.90
39219;DHT22;24934;52.752;6.964;2023-04-06T06:36:35;7.40;99.90
39219;DHT22;24934;52.752;6.964;2023-04-06T06:39:01;7.70;99.90
39219;DHT22;24934;52.752;6.964;2023-04-06T06:41:28;8.20;99.90
39219;DHT22;24934;52.752;6.964;2023-04-06T06:43:54;8.10;99.90
39219;DHT22;24934;52.752;6.964;2023-04-06T06:46:20;8.50;99.90
39219;DHT22;24934;52.752;6.964;2023-04-06T06:48:46;9.00;99.90
39219;DHT22;24934;52.752;6.964;2023-04-06T06:51:12;9.30;99.90
39219;DHT22;24934;52.752;6.964;2023-04-06T06:53:38;9.30;99.90
39219;DHT22;24934;52.752;6.964;2023-04-06T06:56:04;9.90;99.90
39219;DHT22;24934;52.752;6.964;2023-04-06T06:58:30;10.60;99.90
39219;DHT22;24934;52.752;6.964;2023-04-06T07:00:59;11.20;99.90
39219;DHT22;24934;52.752;6.964;2023-04-06T07:03:25;11.80;99.90
39219;DHT22;24934;52.752;6.964;2023-04-06T07:05:51;12.00;99.90
39219;DHT22;24934;52.752;6.964;2023-04-06T07:08:23;12.50;99.90
39219;DHT22;24934;52.752;6.964;2023-04-06T07:10:50;12.40;99.90
39219;DHT22;24934;52.752;6.964;2023-04-06T07:13:17;12.50;99.90
39219;DHT22;24934;52.752;6.964;2023-04-06T07:15:50;12.50;99.90
39219;DHT22;24934;52.752;6.964;2023-04-06T07:18:18;12.70;99.90
39219;DHT22;24934;52.752;6.964;2023-04-06T07:20:44;12.50;99.90
39219;DHT22;24934;52.752;6.964;2023-04-06T07:23:12;13.00;99.70
39219;DHT22;24934;52.752;6.964;2023-04-06T07:25:38;13.40;99.00
39219;DHT22;24934;52.752;6.964;2023-04-06T07:28:03;13.30;98.30
39219;DHT22;24934;52.752;6.964;2023-04-06T07:30:29;12.70;98.60
39219;DHT22;24934;52.752;6.964;2023-04-06T07:32:55;12.50;99.30
39219;DHT22;24934;52.752;6.964;2023-04-06T07:35:22;13.10;99.80
39219;DHT22;24934;52.752;6.964;2023-04-06T07:37:48;13.20;99.10
39219;DHT22;24934;52.752;6.964;2023-04-06T07:40:14;13.40;98.10
39219;DHT22;24934;52.752;6.964;2023-04-06T07:42:39;13.80;98.90
39219;DHT22;24934;52.752;6.964;2023-04-06T07:45:06;14.50;98.50
39219;DHT22;24934;52.752;6.964;2023-04-06T07:47:32;15.20;96.30
39219;DHT22;24934;52.752;6.964;2023-04-06T07:49:57;15.10;95.50
39219;DHT22;24934;52.752;6.964;2023-04-06T07:52:23;15.20;94.60
39219;DHT22;24934;52.752;6.964;2023-04-06T07:54:48;15.90;93.40
39219;DHT22;24934;52.752;6.964;2023-04-06T07:57:14;15.90;93.20
39219;DHT22;24934;52.752;6.964;2023-04-06T07:59:40;15.60;93.10
39219;DHT22;24934;52.752;6.964;2023-04-06T08:02:06;15.30;93.60
39219;DHT22;24934;52.752;6.964;2023-04-06T08:04:31;15.40;94.00
39219;DHT22;24934;52.752;6.964;2023-04-06T08:06:57;15.10;93.00
39219;DHT22;24934;52.752;6.964;2023-04-06T08:09:22;15.20;93.50
39219;DHT22;24934;52.752;6.964;2023-04-06T08:11:48;15.60;93.30
39219;DHT22;24934;52.752;6.964;2023-04-06T08:14:14;16.50;92.50
39219;DHT22;24934;52.752;6.964;2023-04-06T08:16:41;16.60;92.20
39219;DHT22;24934;52.752;6.964;2023-04-06T08:19:07;16.60;92.20
39219;DHT22;24934;52.752;6.964;2023-04-06T08:21:35;16.80;91.30
39219;DHT22;24934;52.752;6.964;2023-04-06T08:24:01;16.50;91.90
39219;DHT22;24934;52.752;6.964;2023-04-06T08:26:27;16.90;91.60
39219;DHT22;24934;52.752;6.964;2023-04-06T08:28:52;17.00;91.80
39219;DHT22;24934;52.752;6.964;2023-04-06T08:31:18;17.30;91.30
39219;DHT22;24934;52.752;6.964;2023-04-06T08:33:43;17.00;91.40
39219;DHT22;24934;52.752;6.964;2023-04-06T08:36:10;16.70;91.40
39219;DHT22;24934;52.752;6.964;2023-04-06T08:38:36;16.60;91.00
39219;DHT22;24934;52.752;6.964;2023-04-06T08:41:13;17.30;91.00
39219;DHT22;24934;52.752;6.964;2023-04-06T08:43:47;16.30;90.70
39219;DHT22;24934;52.752;6.964;2023-04-06T08:46:13;15.80;90.80
39219;DHT22;24934;52.752;6.964;2023-04-06T08:48:41;15.50;91.20
39219;DHT22;24934;52.752;6.964;2023-04-06T08:51:10;15.50;92.10
39219;DHT22;24934;52.752;6.964;2023-04-06T08:53:36;16.00;92.40
39219;DHT22;24934;52.752;6.964;2023-04-06T08:56:03;16.10;90.90
39219;DHT22;24934;52.752;6.964;2023-04-06T08:58:35;15.90;91.80
39219;DHT22;24934;52.752;6.964;2023-04-06T09:01:08;16.10;91.80
39219;DHT22;24934;52.752;6.964;2023-04-06T09:03:37;16.20;92.00
39219;DHT22;24934;52.752;6.964;2023-04-06T09:06:04;15.90;91.00
39219;DHT22;24934;52.752;6.964;2023-04-06T09:08:30;16.30;91.20
39219;DHT22;24934;52.752;6.964;2023-04-06T09:10:56;16.30;90.90
39219;DHT22;24934;52.752;6.964;2023-04-06T09:13:21;15.90;90.10
39219;DHT22;24934;52.752;6.964;2023-04-06T09:16:01;15.70;90.30
39219;DHT22;24934;52.752;6.964;2023-04-06T09:18:31;15.70;91.50
39219;DHT22;24934;52.752;6.964;2023-04-06T09:21:01;15.90;91.10
39219;DHT22;24934;52.752;6.964;2023-04-06T09:23:27;16.30;90.90
39219;DHT22;24934;52.752;6.964;2023-04-06T09:26:11;16.90;90.70
39219;DHT22;24934;52.752;6.964;2023-04-06T09:28:49;15.90;90.50
39219;DHT22;24934;52.752;6.964;2023-04-06T09:31:16;15.50;90.70
39219;DHT22;24934;52.752;6.964;2023-04-06T09:33:44;15.60;90.50
39219;DHT22;24934;52.752;6.964;2023-04-06T09:36:11;16.00;90.80
39219;DHT22;24934;52.752;6.964;2023-04-06T09:38:55;16.00;90.80
39219;DHT22;24934;52.752;6.964;2023-04-06T09:41:25;16.20;89.50
39219;DHT22;24934;52.752;6.964;2023-04-06T09:43:52;16.30;89.50
39219;DHT22;24934;52.752;6.964;2023-04-06T09:46:26;16.20;87.80
39219;DHT22;24934;52.752;6.964;2023-04-06T09:48:53;16.00;87.90
39219;DHT22;24934;52.752;6.964;2023-04-06T09:51:18;14.80;87.50
39219;DHT22;24934;52.752;6.964;2023-04-06T09:53:52;14.60;91.10
39219;DHT22;24934;52.752;6.964;2023-04-06T09:56:21;14.70;90.10
39219;DHT22;24934;52.752;6.964;2023-04-06T09:58:56;14.60;90.40
39219;DHT22;24934;52.752;6.964;2023-04-06T10:01:26;14.40;90.70
39219;DHT22;24934;52.752;6.964;2023-04-06T10:04:03;14.00;89.60
39219;DHT22;24934;52.752;6.964;2023-04-06T10:06:33;14.60;90.90
39219;DHT22;24934;52.752;6.964;2023-04-06T10:09:02;14.80;89.90
39219;DHT22;24934;52.752;6.964;2023-04-06T10:11:29;13.90;90.40
39219;DHT22;24934;52.752;6.964;2023-04-06T10:13:56;13.70;90.70
39219;DHT22;24934;52.752;6.964;2023-04-06T10:16:22;13.50;90.80
39219;DHT22;24934;52.752;6.964;2023-04-06T10:18:54;13.30;91.80
39219;DHT22;24934;52.752;6.964;2023-04-06T10:21:24;13.50;92.00
39219;DHT22;24934;52.752;6.964;2023-04-06T10:23:55;13.20;90.60
39219;DHT22;24934;52.752;6.964;2023-04-06T10:26:23;13.10;90.70
39219;DHT22;24934;52.752;6.964;2023-04-06T10:28:49;13.20;91.20
39219;DHT22;24934;52.752;6.964;2023-04-06T10:31:27;13.30;91.10
39219;DHT22;24934;52.752;6.964;2023-04-06T10:33:59;13.70;92.70
39219;DHT22;24934;52.752;6.964;2023-04-06T10:36:33;14.00;90.40
39219;DHT22;24934;52.752;6.964;2023-04-06T10:39:00;14.60;89.20
39219;DHT22;24934;52.752;6.964;2023-04-06T10:41:36;14.80;89.70
39219;DHT22;24934;52.752;6.964;2023-04-06T10:44:06;15.40;89.70
39219;DHT22;24934;52.752;6.964;2023-04-06T10:46:33;15.40;88.60
39219;DHT22;24934;52.752;6.964;2023-04-06T10:49:10;15.30;88.90
39219;DHT22;24934;52.752;6.964;2023-04-06T10:51:38;15.20;89.80
39219;DHT22;24934;52.752;6.964;2023-04-06T10:54:06;15.10;88.20
39219;DHT22;24934;52.752;6.964;2023-04-06T10:56:32;14.80;87.70
39219;DHT22;24934;52.752;6.964;2023-04-06T10:58:59;14.60;88.80
39219;DHT22;24934;52.752;6.964;2023-04-06T11:01:25;14.70;90.10
39219;DHT22;24934;52.752;6.964;2023-04-06T11:03:54;14.60;90.20
39219;DHT22;24934;52.752;6.964;2023-04-06T11:06:25;14.80;90.40
39219;DHT22;24934;52.752;6.964;2023-04-06T11:08:52;15.20;91.20
39219;DHT22;24934;52.752;6.964;2023-04-06T11:11:20;15.20;90.40
39219;DHT22;24934;52.752;6.964;2023-04-06T11:13:52;15.00;90.10
39219;DHT22;24934;52.752;6.964;2023-04-06T11:16:30;14.60;90.10
39219;DHT22;24934;52.752;6.964;2023-04-06T11:19:04;14.90;90.30
39219;DHT22;24934;52.752;6.964;2023-04-06T11:21:49;15.70;91.00
39219;DHT22;24934;52.752;6.964;2023-04-06T11:24:16;15.60;88.40
39219;DHT22;24934;52.752;6.964;2023-04-06T11:26:44;15.70;88.20
39219;DHT22;24934;52.752;6.964;2023-04-06T11:29:16;15.50;86.10
39219;DHT22;24934;52.752;6.964;2023-04-06T11:31:45;15.20;86.60
39219;DHT22;24934;52.752;6.964;2023-04-06T11:34:12;14.70;84.10
39219;DHT22;24934;52.752;6.964;2023-04-06T11:36:41;14.40;84.80
39219;DHT22;24934;52.752;6.964;2023-04-06T11:39:07;14.30;87.20
39219;DHT22;24934;52.752;6.964;2023-04-06T11:41:33;14.60;87.60
39219;DHT22;24934;52.752;6.964;2023-04-06T11:44:01;14.60;89.30
39219;DHT22;24934;52.752;6.964;2023-04-06T11:46:28;14.50;87.70
39219;DHT22;24934;52.752;6.964;2023-04-06T11:49:01;14.60;87.00
39219;DHT22;24934;52.752;6.964;2023-04-06T11:51:27;14.60;87.60
39219;DHT22;24934;52.752;6.964;2023-04-06T11:53:53;14.30;88.90
39219;DHT22;24934;52.752;6.964;2023-04-06T11:56:29;14.10;89.40
39219;DHT22;24934;52.752;6.964;2023-04-06T11:58:56;14.30;91.20
39219;DHT22;24934;52.752;6.964;2023-04-06T12:01:23;14.20;90.30
39219;DHT22;24934;52.752;6.964;2023-04-06T12:03:50;14.30;89.70
39219;DHT22;24934;52.752;6.964;2023-04-06T12:06:16;14.10;90.30
39219;DHT22;24934;52.752;6.964;2023-04-06T12:08:42;14.20;90.70
39219;DHT22;24934;52.752;6.964;2023-04-06T12:11:08;14.60;91.00
39219;DHT22;24934;52.752;6.964;2023-04-06T12:13:34;15.00;90.80
39219;DHT22;24934;52.752;6.964;2023-04-06T12:15:59;14.80;90.20
39219;DHT22;24934;52.752;6.964;2023-04-06T12:18:25;15.00;90.00
39219;DHT22;24934;52.752;6.964;2023-04-06T12:20:51;14.80;89.30
39219;DHT22;24934;52.752;6.964;2023-04-06T12:23:19;14.80;88.30
39219;DHT22;24934;52.752;6.964;2023-04-06T12:25:44;14.60;87.50
39219;DHT22;24934;52.752;6.964;2023-04-06T12:28:10;14.50;89.60
39219;DHT22;24934;52.752;6.964;2023-04-06T12:30:36;14.40;88.30
39219;DHT22;24934;52.752;6.964;2023-04-06T12:33:02;14.60;87.70
39219;DHT22;24934;52.752;6.964;2023-04-06T12:35:27;14.50;86.40
39219;DHT22;24934;52.752;6.964;2023-04-06T12:37:53;14.80;87.00
39219;DHT22;24934;52.752;6.964;2023-04-06T12:40:19;14.90;87.30
39219;DHT22;24934;52.752;6.964;2023-04-06T12:42:45;14.80;85.70
39219;DHT22;24934;52.752;6.964;2023-04-06T12:45:11;14.80;85.50
39219;DHT22;24934;52.752;6.964;2023-04-06T12:47:37;14.60;85.60
39219;DHT22;24934;52.752;6.964;2023-04-06T12:50:04;14.60;86.50
39219;DHT22;24934;52.752;6.964;2023-04-06T12:52:31;14.30;86.80
39219;DHT22;24934;52.752;6.964;2023-04-06T12:54:57;14.20;86.40
39219;DHT22;24934;52.752;6.964;2023-04-06T12:57:24;14.00;87.80
39219;DHT22;24934;52.752;6.964;2023-04-06T12:59:51;13.70;88.00
39219;DHT22;24934;52.752;6.964;2023-04-06T13:02:18;13.90;89.30
39219;DHT22;24934;52.752;6.964;2023-04-06T13:04:45;13.90;88.20
39219;DHT22;24934;52.752;6.964;2023-04-06T13:07:11;14.10;87.60
39219;DHT22;24934;52.752;6.964;2023-04-06T13:09:36;13.90;87.70
39219;DHT22;24934;52.752;6.964;2023-04-06T13:12:02;14.00;87.70
39219;DHT22;24934;52.752;6.964;2023-04-06T13:14:28;13.90;87.10
39219;DHT22;24934;52.752;6.964;2023-04-06T13:16:53;14.10;87.10
39219;DHT22;24934;52.752;6.964;2023-04-06T13:19:19;14.10;87.20
39219;DHT22;24934;52.752;6.964;2023-04-06T13:21:45;13.80;87.70
39219;DHT22;24934;52.752;6.964;2023-04-06T13:24:10;14.00;89.20
39219;DHT22;24934;52.752;6.964;2023-04-06T13:26:36;13.90;89.00
39219;DHT22;24934;52.752;6.964;2023-04-06T13:29:02;14.00;88.00
39219;DHT22;24934;52.752;6.964;2023-04-06T13:31:28;14.10;88.30
39219;DHT22;24934;52.752;6.964;2023-04-06T13:33:54;13.80;88.00
39219;DHT22;24934;52.752;6.964;2023-04-06T13:36:19;13.70;89.10
39219;DHT22;24934;52.752;6.964;2023-04-06T13:38:45;13.80;89.10
39219;DHT22;24934;52.752;6.964;2023-04-06T13:41:19;13.70;88.70
39219;DHT22;24934;52.752;6.964;2023-04-06T13:43:46;13.60;89.40
39219;DHT22;24934;52.752;6.964;2023-04-06T13:46:11;13.70;90.00
39219;DHT22;24934;52.752;6.964;2023-04-06T13:48:37;13.60;89.70
39219;DHT22;24934;52.752;6.964;2023-04-06T13:51:12;13.70;90.00
39219;DHT22;24934;52.752;6.964;2023-04-06T13:53:39;13.50;89.60
39219;DHT22;24934;52.752;6.964;2023-04-06T13:56:06;13.50;89.80
39219;DHT22;24934;52.752;6.964;2023-04-06T13:58:32;13.60;89.80
39219;DHT22;24934;52.752;6.964;2023-04-06T14:01:07;13.70;90.70
39219;DHT22;24934;52.752;6.964;2023-04-06T14:03:35;14.00;90.30
39219;DHT22;24934;52.752;6.964;2023-04-06T14:06:00;14.10;90.10
39219;DHT22;24934;52.752;6.964;2023-04-06T14:08:26;14.10;89.80
39219;DHT22;24934;52.752;6.964;2023-04-06T14:10:52;14.30;91.20
39219;DHT22;24934;52.752;6.964;2023-04-06T14:13:17;14.20;91.00
39219;DHT22;24934;52.752;6.964;2023-04-06T14:15:44;14.20;92.00
39219;DHT22;24934;52.752;6.964;2023-04-06T14:18:10;14.20;91.70
39219;DHT22;24934;52.752;6.964;2023-04-06T14:20:35;14.10;92.00
39219;DHT22;24934;52.752;6.964;2023-04-06T14:23:01;14.20;92.40
39219;DHT22;24934;52.752;6.964;2023-04-06T14:25:27;14.20;93.20
39219;DHT22;24934;52.752;6.964;2023-04-06T14:27:54;14.10;92.80
39219;DHT22;24934;52.752;6.964;2023-04-06T14:30:20;14.10;93.80
39219;DHT22;24934;52.752;6.964;2023-04-06T14:32:45;13.90;93.60
39219;DHT22;24934;52.752;6.964;2023-04-06T14:35:11;13.90;93.90
39219;DHT22;24934;52.752;6.964;2023-04-06T14:37:37;13.70;93.80
39219;DHT22;24934;52.752;6.964;2023-04-06T14:40:03;13.70;94.00
39219;DHT22;24934;52.752;6.964;2023-04-06T14:42:28;13.50;93.40
39219;DHT22;24934;52.752;6.964;2023-04-06T14:44:54;13.40;94.10
39219;DHT22;24934;52.752;6.964;2023-04-06T14:47:20;13.30;94.00
39219;DHT22;24934;52.752;6.964;2023-04-06T14:49:50;13.30;94.10
39219;DHT22;24934;52.752;6.964;2023-04-06T14:52:16;13.20;94.90
39219;DHT22;24934;52.752;6.964;2023-04-06T14:54:42;12.90;95.40
39219;DHT22;24934;52.752;6.964;2023-04-06T14:57:09;12.90;96.20
39219;DHT22;24934;52.752;6.964;2023-04-06T14:59:35;12.90;95.50
39219;DHT22;24934;52.752;6.964;2023-04-06T15:02:01;13.00;96.00
39219;DHT22;24934;52.752;6.964;2023-04-06T15:04:28;13.00;95.80
39219;DHT22;24934;52.752;6.964;2023-04-06T15:06:55;12.80;96.10
39219;DHT22;24934;52.752;6.964;2023-04-06T15:09:20;12.70;96.70
39219;DHT22;24934;52.752;6.964;2023-04-06T15:11:46;12.50;97.50
39219;DHT22;24934;52.752;6.964;2023-04-06T15:14:11;12.50;97.60
39219;DHT22;24934;52.752;6.964;2023-04-06T15:16:37;12.40;97.50
39219;DHT22;24934;52.752;6.964;2023-04-06T15:19:02;12.30;97.50
39219;DHT22;24934;52.752;6.964;2023-04-06T15:21:28;12.20;98.10
39219;DHT22;24934;52.752;6.964;2023-04-06T15:23:54;12.20;97.80
39219;DHT22;24934;52.752;6.964;2023-04-06T15:26:21;12.20;98.10
39219;DHT22;24934;52.752;6.964;2023-04-06T15:28:46;12.20;99.20
39219;DHT22;24934;52.752;6.964;2023-04-06T15:31:16;12.10;99.60
39219;DHT22;24934;52.752;6.964;2023-04-06T15:33:42;12.00;99.90